Racecast

Isaiah DeLaCerda

Alamosa (CO) · 12 · CO D3A3A · Compare head to head

Athlete rating 126.2 2017 TF season
Best race 133.1 XC
Races 42
Seasons 6 2011 — 2017

RankedNation #4283·CO #149·CO D3A #34·Team #3 ?

Speed rating — all races

Cross Country

XC speed rating

2016 XC 131.4

Alamosa (CO) · Grade 12

Date Meet Event Result Place Rating Difficulty PR/SR Flags
2016-11-19 Grande Sports Complex 5000m 15:51 18th · 1st on team 131.6 +0.004 CSR
2016-10-20 Fountain Creek Regional 5000m 16:20.5 2nd · 1st on team 127.9 +0.016 ★CR CSR
2016-10-08 Englewood HS 5000m 15:52 1st · 1st on team 131.4 +0.007 ★CR CSR
2016-09-24 Elmwood Golf Course 5000m 16:04 2nd · 1st on team 132.1 +0.038 ★CR CSR
2016-09-16 Hillcrest Golf Club 5000m 16:06.7 1st · 1st on team 132.1 +0.040 ★CR CSR
2016-09-10 Cattails Golf Course 5000m 15:42.8 1st · 1st on team 131.7 +0.012 ★PR ★CR SR CSR
2016-08-25 Norris Penrose Event Center 5000m 16:15.1 1st · 1st on team 133.1 +0.067 ★CR ★R SR CSR RSR

2015 XC 127.2

Alamosa (CO) · Grade 11

Date Meet Event Result Place Rating Difficulty PR/SR Flags
2015-11-21 Grande Sports Complex 5000m 15:47 42nd · 1st on team 131.2 +0.004 PR ★CR R SR CSR RSR
2015-10-22 Elmwood Golf Course 5000m 16:17 2nd · 1st on team 130.9 +0.038 PR CR R SR CSR RSR
2015-10-16 Monte Vista Golf Course 5000m 17:06 3rd · 1st on team 126.1 +0.046 ★CR CSR
2015-09-19 Elmwood Golf Course 5000m 16:20 4th · 1st on team 130.2 +0.038 PR CR R SR CSR RSR
2015-09-11 Hillcrest Golf Club 5000m 17:34.1 7th · 2nd on team 122.1 +0.040 CR CSR
2015-09-05 Cattails Golf Course 5000m 16:48.4 7th · 3rd on team 122.7 +0.012 SR CSR RSR

2014 XC 125.5

Alamosa (CO) · Grade 10

Date Meet Event Result Place Rating Difficulty PR/SR Flags
2014-10-25 Norris Penrose Event Center 5000m 17:25.8 7th · 1st on team 126.8 +0.067 CR R CSR RSR
2014-10-16 Elmwood Golf Course 5000m 17:05 4th · 2nd on team 125.4 +0.038 CSR
2014-10-02 Bear Creek Regional Park 5000m 16:56.1 5th · 5th on team 126.3 +0.043 ★CR CSR
2014-09-06 Cattails Golf Course 5000m 16:28.2 3rd · 1st on team 126.6 +0.012 PR CR R SR CSR RSR
2014-08-21 Norris Penrose Event Center 5000m 17:58 2nd · 1st on team 122.4 +0.067 SR CSR RSR

2013 XC 122.9

Alamosa (CO) · Grade 9

Date Meet Event Result Place Rating Difficulty PR/SR Flags
2013-10-26 Norris Penrose Event Center 5000m 17:27.3 7th · 1st on team 125.4 +0.067 CR R CSR RSR
2013-10-17 Elmwood Golf Course 5000m 17:03 5th · 2nd on team 124.2 +0.038 CR R CSR RSR
2013-09-21 Morley Field Sports Complex 4747m 16:40 3rd · 1st on team 123.3 +0.065 ★PR ★CR R SR CSR RSR
2013-09-07 Cattails Golf Course 5000m 17:02.9 16th · 1st on team 123.2 +0.012 PR CR R SR CSR RSR
2013-08-29 Norris Penrose Event Center 5000m 18:42.5 12th · 2nd on team 118.4 +0.067 PR CR R SR CSR RSR

2011 XC 118.0

Alamosa (CO) · Grade 9

Date Meet Event Result Place Rating Difficulty PR/SR Flags
2011-09-17 Morley Field Sports Complex 4747m 17:26 5th · 1st on team 118.0 +0.065 PR CR R SR CSR RSR

Track & Field

TF speed rating

2017 TF 125.5

Alamosa (CO) · Grade 12

Date Meet Event Result Place Rating Difficulty PR/SR Flags
2017-04-08 Mullen Runners Roost Invitational 3200m 9:56.89 2nd · 1st on team 126.8 -0.014 SR RSR
2017-03-18 Harrison Panther Invitational 1600m 4:43.86 7th · 1st on team 124.2 +0.000 SR RSR

2016 TF 125.8

Alamosa (CO) · Grade 12

Date Meet Event Result Place Rating Difficulty PR/SR Flags
2016-05-21 CHSAA 3A State Championships 1600m 4:32.72 8th · 1st on team 128.4 -0.011 ★PR SR RSR
2016-05-21 CHSAA 3A State Championships 3200m 10:01.82 8th · 1st on team 126.4 -0.011
2016-05-07 Terry Allen Invitational 1600m 4:56.14 1st · 1st on team 120.7 +0.014 SR
2016-05-06 The Pueblo Twilight 3200m 9:50.93 6th · 1st on team 127.7 -0.011 RSR
2016-04-16 Russell Cup 3200m 9:46.5 2nd · 1st on team 126.1 -0.035 SR RSR

2015 TF 125.1

Alamosa (CO) · Grade 11

Date Meet Event Result Place Rating Difficulty PR/SR Flags
2015-05-16 Colorado 1A 2A 3A State Championships 3200m 9:43.41 3rd · 1st on team 129.5 -0.011 ★PR R SR RSR
2015-05-16 Colorado 1A 2A 3A State Championships 1600m 4:33.01 9th · 2nd on team 127.9 -0.011 PR SR
2015-05-02 Terry Allen Invitational 1600m 4:55.52 4th · 2nd on team 121.4 +0.014
2015-05-01 Pueblo Twilight 3200m 9:48.85 4th · 1st on team 128.0 -0.011 PR R SR RSR
2015-04-25 High Altitude Championships 1600m 4:45.56 1st · 1st on team 126.2 +0.020
2015-04-25 High Altitude Championships 800m 2:13.7 2nd · 1st on team 119.3 +0.020 ★PR SR
2015-04-17 La Junta Tiger Relays 1600m 4:36.57 4th · 2nd on team 127.1 -0.004 PR R SR RSR
2015-04-03 Scorpion Invite 1600m 4:54.89 4th · 1st on team 121.6 +0.014 PR SR RSR

2014 TF 118.4

Alamosa (CO) · Grade 10

Date Meet Event Result Place Rating Difficulty PR/SR Flags
2014-05-17 CHSAA 3A State Championships 3200m 10:03.74 9th · 1st on team 125.3 -0.011 PR SR RSR
2014-05-10 Intermountain League Championships 3200m 10:46.91 1st · 1st on team 120.7 +0.020 PR SR RSR
2014-03-15 The Banana Belt Classic 1600m 5:25.99 28th · 2nd on team 109.2 -0.006 PR SR RSR